sensor_id;sensor_type;location;lat;lon;timestamp;temperature;humidity
4795;DHT22;2411;47.060;15.064;2023-02-28T00:01:04;-1.10;1.00
4795;DHT22;2411;47.060;15.064;2023-02-28T00:03:31;-1.10;1.00
4795;DHT22;2411;47.060;15.064;2023-02-28T00:06:06;-1.10;1.00
4795;DHT22;2411;47.060;15.064;2023-02-28T00:08:33;-1.10;1.00
4795;DHT22;2411;47.060;15.064;2023-02-28T00:11:02;-1.10;1.00
4795;DHT22;2411;47.060;15.064;2023-02-28T00:13:30;-1.00;1.00
4795;DHT22;2411;47.060;15.064;2023-02-28T00:16:02;-1.00;1.00
4795;DHT22;2411;47.060;15.064;2023-02-28T00:18:30;-0.90;1.00
4795;DHT22;2411;47.060;15.064;2023-02-28T00:20:58;-0.90;1.00
4795;DHT22;2411;47.060;15.064;2023-02-28T00:23:26;-0.80;1.00
4795;DHT22;2411;47.060;15.064;2023-02-28T00:25:53;-0.90;1.00
4795;DHT22;2411;47.060;15.064;2023-02-28T00:28:21;-0.80;1.00
4795;DHT22;2411;47.060;15.064;2023-02-28T00:30:48;-0.80;1.00
4795;DHT22;2411;47.060;15.064;2023-02-28T00:33:16;-0.90;1.00
4795;DHT22;2411;47.060;15.064;2023-02-28T00:35:43;-0.90;1.00
4795;DHT22;2411;47.060;15.064;2023-02-28T00:38:14;-1.00;1.00
4795;DHT22;2411;47.060;15.064;2023-02-28T00:40:41;-1.00;1.00
4795;DHT22;2411;47.060;15.064;2023-02-28T00:43:08;-0.90;1.00
4795;DHT22;2411;47.060;15.064;2023-02-28T00:45:35;-0.70;1.00
4795;DHT22;2411;47.060;15.064;2023-02-28T00:48:03;-0.70;1.00
4795;DHT22;2411;47.060;15.064;2023-02-28T00:50:31;-0.60;1.00
4795;DHT22;2411;47.060;15.064;2023-02-28T00:52:58;-0.80;1.00
4795;DHT22;2411;47.060;15.064;2023-02-28T00:55:25;-0.70;1.00
4795;DHT22;2411;47.060;15.064;2023-02-28T00:57:52;-0.70;1.00
4795;DHT22;2411;47.060;15.064;2023-02-28T01:00:19;-0.70;1.00
4795;DHT22;2411;47.060;15.064;2023-02-28T01:02:47;-0.60;1.00
4795;DHT22;2411;47.060;15.064;2023-02-28T01:05:14;-0.60;1.00
4795;DHT22;2411;47.060;15.064;2023-02-28T01:07:41;-0.60;1.00
4795;DHT22;2411;47.060;15.064;2023-02-28T01:10:09;-0.60;1.00
4795;DHT22;2411;47.060;15.064;2023-02-28T01:12:36;-0.50;1.00
4795;DHT22;2411;47.060;15.064;2023-02-28T01:15:04;-0.50;1.00
4795;DHT22;2411;47.060;15.064;2023-02-28T01:17:31;-0.50;1.00
4795;DHT22;2411;47.060;15.064;2023-02-28T01:19:58;-0.40;1.00
4795;DHT22;2411;47.060;15.064;2023-02-28T01:22:25;-0.50;1.00
4795;DHT22;2411;47.060;15.064;2023-02-28T01:24:52;-0.50;1.00
4795;DHT22;2411;47.060;15.064;2023-02-28T01:27:20;-0.50;1.00
4795;DHT22;2411;47.060;15.064;2023-02-28T01:29:47;-0.50;1.00
4795;DHT22;2411;47.060;15.064;2023-02-28T01:32:14;-0.50;1.00
4795;DHT22;2411;47.060;15.064;2023-02-28T01:34:41;-0.50;1.00
4795;DHT22;2411;47.060;15.064;2023-02-28T01:37:08;-0.50;1.00
4795;DHT22;2411;47.060;15.064;2023-02-28T01:39:35;-0.40;1.00
4795;DHT22;2411;47.060;15.064;2023-02-28T01:42:03;-0.50;1.00
4795;DHT22;2411;47.060;15.064;2023-02-28T01:47:23;-0.60;1.00
4795;DHT22;2411;47.060;15.064;2023-02-28T01:49:52;-0.60;1.00
4795;DHT22;2411;47.060;15.064;2023-02-28T01:52:20;-0.60;1.00
4795;DHT22;2411;47.060;15.064;2023-02-28T01:54:52;-0.60;1.00
4795;DHT22;2411;47.060;15.064;2023-02-28T01:57:25;-0.60;1.00
4795;DHT22;2411;47.060;15.064;2023-02-28T01:59:57;-0.60;1.00
4795;DHT22;2411;47.060;15.064;2023-02-28T02:02:27;-0.70;1.00
4795;DHT22;2411;47.060;15.064;2023-02-28T02:07:33;-0.80;1.00
4795;DHT22;2411;47.060;15.064;2023-02-28T02:10:33;-0.80;1.00
4795;DHT22;2411;47.060;15.064;2023-02-28T02:19:17;-0.70;1.00
4795;DHT22;2411;47.060;15.064;2023-02-28T02:36:27;-0.70;1.00
4795;DHT22;2411;47.060;15.064;2023-02-28T02:41:52;-0.70;1.00
4795;DHT22;2411;47.060;15.064;2023-02-28T02:44:30;-0.60;1.00
4795;DHT22;2411;47.060;15.064;2023-02-28T02:47:03;-0.80;1.00
4795;DHT22;2411;47.060;15.064;2023-02-28T02:49:36;-0.80;1.00
4795;DHT22;2411;47.060;15.064;2023-02-28T02:52:07;-0.80;1.00
4795;DHT22;2411;47.060;15.064;2023-02-28T02:54:41;-0.80;1.00
4795;DHT22;2411;47.060;15.064;2023-02-28T02:57:15;-0.70;1.00
4795;DHT22;2411;47.060;15.064;2023-02-28T02:59:44;-0.70;1.00
4795;DHT22;2411;47.060;15.064;2023-02-28T03:02:14;-0.60;1.00
4795;DHT22;2411;47.060;15.064;2023-02-28T03:04:47;-0.60;1.00
4795;DHT22;2411;47.060;15.064;2023-02-28T03:07:15;-0.60;1.00
4795;DHT22;2411;47.060;15.064;2023-02-28T03:09:54;-0.70;1.00
4795;DHT22;2411;47.060;15.064;2023-02-28T03:12:31;-0.60;1.00
4795;DHT22;2411;47.060;15.064;2023-02-28T03:15:24;-0.70;1.00
4795;DHT22;2411;47.060;15.064;2023-02-28T03:21:12;-0.60;1.00
4795;DHT22;2411;47.060;15.064;2023-02-28T03:23:48;-0.70;1.00
4795;DHT22;2411;47.060;15.064;2023-02-28T03:26:23;-0.70;1.00
4795;DHT22;2411;47.060;15.064;2023-02-28T03:29:13;-0.70;1.00
4795;DHT22;2411;47.060;15.064;2023-02-28T03:31:58;-0.80;1.00
4795;DHT22;2411;47.060;15.064;2023-02-28T03:34:32;-0.80;1.00
4795;DHT22;2411;47.060;15.064;2023-02-28T03:37:06;-0.80;1.00
4795;DHT22;2411;47.060;15.064;2023-02-28T03:39:44;-0.80;1.00
4795;DHT22;2411;47.060;15.064;2023-02-28T03:42:19;-0.80;1.00
4795;DHT22;2411;47.060;15.064;2023-02-28T03:45:00;-0.70;1.00
4795;DHT22;2411;47.060;15.064;2023-02-28T03:47:36;-0.70;1.00
4795;DHT22;2411;47.060;15.064;2023-02-28T03:52:46;-0.70;1.00
4795;DHT22;2411;47.060;15.064;2023-02-28T03:55:15;-0.60;1.00
4795;DHT22;2411;47.060;15.064;2023-02-28T03:58:14;-0.60;1.00
4795;DHT22;2411;47.060;15.064;2023-02-28T04:00:53;-0.70;1.00
4795;DHT22;2411;47.060;15.064;2023-02-28T04:03:21;-0.60;1.00
4795;DHT22;2411;47.060;15.064;2023-02-28T04:05:53;-0.60;1.00
4795;DHT22;2411;47.060;15.064;2023-02-28T04:08:22;-0.60;1.00
4795;DHT22;2411;47.060;15.064;2023-02-28T04:10:58;-0.60;1.00
4795;DHT22;2411;47.060;15.064;2023-02-28T04:13:28;-0.60;1.00
4795;DHT22;2411;47.060;15.064;2023-02-28T04:15:55;-0.60;1.00
4795;DHT22;2411;47.060;15.064;2023-02-28T04:18:22;-0.60;1.00
4795;DHT22;2411;47.060;15.064;2023-02-28T04:20:50;-0.60;1.00
4795;DHT22;2411;47.060;15.064;2023-02-28T04:23:17;-0.60;1.00
4795;DHT22;2411;47.060;15.064;2023-02-28T04:25:44;-0.70;1.00
4795;DHT22;2411;47.060;15.064;2023-02-28T04:28:11;-0.70;1.00
4795;DHT22;2411;47.060;15.064;2023-02-28T04:30:38;-0.70;1.00
4795;DHT22;2411;47.060;15.064;2023-02-28T04:33:06;-0.70;1.00
4795;DHT22;2411;47.060;15.064;2023-02-28T04:35:33;-0.70;1.00
4795;DHT22;2411;47.060;15.064;2023-02-28T04:38:00;-0.80;1.00
4795;DHT22;2411;47.060;15.064;2023-02-28T04:40:28;-0.80;1.00
4795;DHT22;2411;47.060;15.064;2023-02-28T04:42:55;-0.80;1.00
4795;DHT22;2411;47.060;15.064;2023-02-28T04:45:22;-0.80;1.00
4795;DHT22;2411;47.060;15.064;2023-02-28T04:47:49;-0.70;1.00
4795;DHT22;2411;47.060;15.064;2023-02-28T04:50:16;-0.80;1.00
4795;DHT22;2411;47.060;15.064;2023-02-28T04:52:44;-0.80;1.00
4795;DHT22;2411;47.060;15.064;2023-02-28T04:55:11;-0.70;1.00
4795;DHT22;2411;47.060;15.064;2023-02-28T04:57:38;-0.80;1.00
4795;DHT22;2411;47.060;15.064;2023-02-28T05:00:05;-0.80;1.00
4795;DHT22;2411;47.060;15.064;2023-02-28T05:02:38;-0.80;1.00
4795;DHT22;2411;47.060;15.064;2023-02-28T05:05:06;-0.70;1.00
4795;DHT22;2411;47.060;15.064;2023-02-28T05:07:34;-0.70;1.00
4795;DHT22;2411;47.060;15.064;2023-02-28T05:10:01;-0.70;1.00
4795;DHT22;2411;47.060;15.064;2023-02-28T05:12:28;-0.70;1.00
4795;DHT22;2411;47.060;15.064;2023-02-28T05:14:55;-0.60;1.00
4795;DHT22;2411;47.060;15.064;2023-02-28T05:17:23;-0.70;1.00
4795;DHT22;2411;47.060;15.064;2023-02-28T05:19:50;-0.70;1.00
4795;DHT22;2411;47.060;15.064;2023-02-28T05:22:17;-0.70;1.00
4795;DHT22;2411;47.060;15.064;2023-02-28T05:24:45;-0.80;1.00
4795;DHT22;2411;47.060;15.064;2023-02-28T05:27:12;-0.90;1.00
4795;DHT22;2411;47.060;15.064;2023-02-28T05:29:39;-0.80;1.00
4795;DHT22;2411;47.060;15.064;2023-02-28T05:32:11;-0.70;1.00
4795;DHT22;2411;47.060;15.064;2023-02-28T05:34:39;-0.70;1.00
4795;DHT22;2411;47.060;15.064;2023-02-28T05:37:11;-0.70;1.00
4795;DHT22;2411;47.060;15.064;2023-02-28T05:39:39;-0.70;1.00
4795;DHT22;2411;47.060;15.064;2023-02-28T05:42:06;-0.70;1.00
4795;DHT22;2411;47.060;15.064;2023-02-28T05:44:34;-0.80;1.00
4795;DHT22;2411;47.060;15.064;2023-02-28T05:47:01;-0.80;1.00
4795;DHT22;2411;47.060;15.064;2023-02-28T05:49:28;-0.80;1.00
4795;DHT22;2411;47.060;15.064;2023-02-28T05:51:55;-0.90;1.00
4795;DHT22;2411;47.060;15.064;2023-02-28T05:54:22;-0.80;1.00
4795;DHT22;2411;47.060;15.064;2023-02-28T05:56:50;-0.80;1.00
4795;DHT22;2411;47.060;15.064;2023-02-28T05:59:17;-0.80;1.00
4795;DHT22;2411;47.060;15.064;2023-02-28T06:01:45;-0.80;1.00
4795;DHT22;2411;47.060;15.064;2023-02-28T06:04:17;-0.80;1.00
4795;DHT22;2411;47.060;15.064;2023-02-28T06:06:58;-0.80;1.00
4795;DHT22;2411;47.060;15.064;2023-02-28T06:09:25;-0.80;1.00
4795;DHT22;2411;47.060;15.064;2023-02-28T06:11:52;-0.90;1.00
4795;DHT22;2411;47.060;15.064;2023-02-28T06:14:20;-0.90;1.00
4795;DHT22;2411;47.060;15.064;2023-02-28T06:16:48;-0.90;1.00
4795;DHT22;2411;47.060;15.064;2023-02-28T06:19:15;-0.80;1.00
4795;DHT22;2411;47.060;15.064;2023-02-28T06:21:43;-0.90;1.00
4795;DHT22;2411;47.060;15.064;2023-02-28T06:24:10;-0.90;1.00
4795;DHT22;2411;47.060;15.064;2023-02-28T06:26:38;-0.90;1.00
4795;DHT22;2411;47.060;15.064;2023-02-28T06:29:05;-0.80;1.00
4795;DHT22;2411;47.060;15.064;2023-02-28T06:31:32;-0.80;1.00
4795;DHT22;2411;47.060;15.064;2023-02-28T06:34:00;-0.80;1.00
4795;DHT22;2411;47.060;15.064;2023-02-28T06:36:27;-0.70;1.00
4795;DHT22;2411;47.060;15.064;2023-02-28T06:38:54;-0.70;1.00
4795;DHT22;2411;47.060;15.064;2023-02-28T06:41:25;-0.70;1.00
4795;DHT22;2411;47.060;15.064;2023-02-28T06:43:52;-0.70;1.00
4795;DHT22;2411;47.060;15.064;2023-02-28T06:46:20;-0.60;1.00
4795;DHT22;2411;47.060;15.064;2023-02-28T06:48:47;-0.60;1.00
4795;DHT22;2411;47.060;15.064;2023-02-28T06:51:18;-0.60;1.00
4795;DHT22;2411;47.060;15.064;2023-02-28T06:53:47;-0.60;1.00
4795;DHT22;2411;47.060;15.064;2023-02-28T06:56:15;-0.50;1.00
4795;DHT22;2411;47.060;15.064;2023-02-28T06:58:49;-0.50;1.00
4795;DHT22;2411;47.060;15.064;2023-02-28T07:01:17;-0.40;1.00
4795;DHT22;2411;47.060;15.064;2023-02-28T07:03:45;-0.40;1.00
4795;DHT22;2411;47.060;15.064;2023-02-28T07:06:12;-0.40;1.00
4795;DHT22;2411;47.060;15.064;2023-02-28T07:08:39;-0.40;1.00
4795;DHT22;2411;47.060;15.064;2023-02-28T07:11:08;-0.40;1.00
4795;DHT22;2411;47.060;15.064;2023-02-28T07:13:35;-0.30;1.00
4795;DHT22;2411;47.060;15.064;2023-02-28T07:16:06;-0.30;1.00
4795;DHT22;2411;47.060;15.064;2023-02-28T07:18:33;-0.10;1.00
4795;DHT22;2411;47.060;15.064;2023-02-28T07:21:06;-0.10;1.00
4795;DHT22;2411;47.060;15.064;2023-02-28T07:23:34;-0.10;1.00
4795;DHT22;2411;47.060;15.064;2023-02-28T07:26:02;-0.10;1.00
4795;DHT22;2411;47.060;15.064;2023-02-28T07:28:29;-0.10;1.00
4795;DHT22;2411;47.060;15.064;2023-02-28T07:30:57;-0.10;1.00
4795;DHT22;2411;47.060;15.064;2023-02-28T07:33:24;-0.10;1.00
4795;DHT22;2411;47.060;15.064;2023-02-28T07:35:51;0.00;1.00
4795;DHT22;2411;47.060;15.064;2023-02-28T07:38:18;-0.10;1.00
4795;DHT22;2411;47.060;15.064;2023-02-28T07:40:45;-0.10;1.00
4795;DHT22;2411;47.060;15.064;2023-02-28T07:43:13;0.00;1.00
4795;DHT22;2411;47.060;15.064;2023-02-28T07:45:40;-0.10;1.00
4795;DHT22;2411;47.060;15.064;2023-02-28T07:48:07;0.00;1.00
4795;DHT22;2411;47.060;15.064;2023-02-28T07:50:37;0.00;1.00
4795;DHT22;2411;47.060;15.064;2023-02-28T07:53:04;0.10;1.00
4795;DHT22;2411;47.060;15.064;2023-02-28T07:55:31;0.00;1.00
4795;DHT22;2411;47.060;15.064;2023-02-28T07:57:59;0.10;1.00
4795;DHT22;2411;47.060;15.064;2023-02-28T08:00:26;0.00;1.00
4795;DHT22;2411;47.060;15.064;2023-02-28T08:02:53;0.20;1.00
4795;DHT22;2411;47.060;15.064;2023-02-28T08:05:21;0.20;1.00
4795;DHT22;2411;47.060;15.064;2023-02-28T08:07:49;0.20;1.00
4795;DHT22;2411;47.060;15.064;2023-02-28T08:10:17;0.20;1.00
4795;DHT22;2411;47.060;15.064;2023-02-28T08:12:44;0.20;1.00
4795;DHT22;2411;47.060;15.064;2023-02-28T08:15:11;0.30;1.00
4795;DHT22;2411;47.060;15.064;2023-02-28T08:17:38;0.30;1.00
4795;DHT22;2411;47.060;15.064;2023-02-28T08:20:06;0.30;1.00
4795;DHT22;2411;47.060;15.064;2023-02-28T08:22:33;0.30;1.00
4795;DHT22;2411;47.060;15.064;2023-02-28T08:25:01;0.40;1.00
4795;DHT22;2411;47.060;15.064;2023-02-28T08:27:28;0.50;1.00
4795;DHT22;2411;47.060;15.064;2023-02-28T08:29:55;0.60;1.00
4795;DHT22;2411;47.060;15.064;2023-02-28T08:32:22;0.60;1.00
4795;DHT22;2411;47.060;15.064;2023-02-28T08:34:56;0.60;1.00
4795;DHT22;2411;47.060;15.064;2023-02-28T08:37:23;0.70;1.00
4795;DHT22;2411;47.060;15.064;2023-02-28T08:39:51;0.70;1.00
4795;DHT22;2411;47.060;15.064;2023-02-28T08:42:22;0.90;1.00
4795;DHT22;2411;47.060;15.064;2023-02-28T08:44:49;1.00;1.00
4795;DHT22;2411;47.060;15.064;2023-02-28T08:47:17;1.00;1.00
4795;DHT22;2411;47.060;15.064;2023-02-28T08:49:44;1.00;1.00
4795;DHT22;2411;47.060;15.064;2023-02-28T08:52:11;1.00;1.00
4795;DHT22;2411;47.060;15.064;2023-02-28T08:54:38;1.00;1.00
4795;DHT22;2411;47.060;15.064;2023-02-28T08:57:06;0.90;1.00
4795;DHT22;2411;47.060;15.064;2023-02-28T08:59:33;1.10;1.00
4795;DHT22;2411;47.060;15.064;2023-02-28T09:02:00;1.10;1.00
4795;DHT22;2411;47.060;15.064;2023-02-28T09:04:27;1.20;1.00
4795;DHT22;2411;47.060;15.064;2023-02-28T09:06:57;1.40;1.00
4795;DHT22;2411;47.060;15.064;2023-02-28T09:09:24;1.30;1.00
4795;DHT22;2411;47.060;15.064;2023-02-28T09:11:51;1.10;1.00
4795;DHT22;2411;47.060;15.064;2023-02-28T09:14:19;1.30;1.00
4795;DHT22;2411;47.060;15.064;2023-02-28T09:16:46;1.40;1.00
4795;DHT22;2411;47.060;15.064;2023-02-28T09:19:13;1.40;1.00
4795;DHT22;2411;47.060;15.064;2023-02-28T09:21:41;1.60;1.00
4795;DHT22;2411;47.060;15.064;2023-02-28T09:24:08;1.70;1.00
4795;DHT22;2411;47.060;15.064;2023-02-28T09:26:35;1.70;1.00
4795;DHT22;2411;47.060;15.064;2023-02-28T09:29:13;1.60;1.00
4795;DHT22;2411;47.060;15.064;2023-02-28T09:31:41;1.60;1.00
4795;DHT22;2411;47.060;15.064;2023-02-28T09:34:08;1.80;1.00
4795;DHT22;2411;47.060;15.064;2023-02-28T09:36:36;1.80;1.00
4795;DHT22;2411;47.060;15.064;2023-02-28T09:39:12;1.90;1.00
4795;DHT22;2411;47.060;15.064;2023-02-28T09:41:43;1.80;1.00
4795;DHT22;2411;47.060;15.064;2023-02-28T09:44:30;1.90;1.00
4795;DHT22;2411;47.060;15.064;2023-02-28T09:49:44;1.80;1.00
4795;DHT22;2411;47.060;15.064;2023-02-28T09:52:21;1.60;1.00
4795;DHT22;2411;47.060;15.064;2023-02-28T09:54:51;1.80;1.00
4795;DHT22;2411;47.060;15.064;2023-02-28T09:57:45;1.80;1.00
4795;DHT22;2411;47.060;15.064;2023-02-28T10:00:18;2.00;1.00
4795;DHT22;2411;47.060;15.064;2023-02-28T10:05:27;2.20;1.00
4795;DHT22;2411;47.060;15.064;2023-02-28T10:08:20;2.40;1.00
4795;DHT22;2411;47.060;15.064;2023-02-28T10:10:56;2.40;1.00
4795;DHT22;2411;47.060;15.064;2023-02-28T10:16:27;2.80;1.00
4795;DHT22;2411;47.060;15.064;2023-02-28T10:21:36;2.60;1.00
4795;DHT22;2411;47.060;15.064;2023-02-28T10:27:00;3.00;1.00
4795;DHT22;2411;47.060;15.064;2023-02-28T10:29:31;3.00;1.00
4795;DHT22;2411;47.060;15.064;2023-02-28T10:32:01;2.80;1.00
4795;DHT22;2411;47.060;15.064;2023-02-28T10:34:30;3.00;1.00
4795;DHT22;2411;47.060;15.064;2023-02-28T10:36:59;3.10;1.00
4795;DHT22;2411;47.060;15.064;2023-02-28T10:42:28;3.20;1.00
4795;DHT22;2411;47.060;15.064;2023-02-28T10:45:22;3.10;1.00
4795;DHT22;2411;47.060;15.064;2023-02-28T11:04:02;3.70;1.00
4795;DHT22;2411;47.060;15.064;2023-02-28T11:06:34;3.40;1.00
4795;DHT22;2411;47.060;15.064;2023-02-28T11:09:05;3.30;1.00
4795;DHT22;2411;47.060;15.064;2023-02-28T11:11:43;3.60;1.00
4795;DHT22;2411;47.060;15.064;2023-02-28T11:14:43;3.60;1.00
4795;DHT22;2411;47.060;15.064;2023-02-28T11:17:22;3.70;1.00
4795;DHT22;2411;47.060;15.064;2023-02-28T11:19:53;3.60;1.00
4795;DHT22;2411;47.060;15.064;2023-02-28T11:22:31;3.80;1.00
4795;DHT22;2411;47.060;15.064;2023-02-28T11:25:02;4.00;1.00
4795;DHT22;2411;47.060;15.064;2023-02-28T11:30:01;3.80;1.00
4795;DHT22;2411;47.060;15.064;2023-02-28T11:32:30;3.90;1.00
4795;DHT22;2411;47.060;15.064;2023-02-28T11:37:37;3.70;1.00
4795;DHT22;2411;47.060;15.064;2023-02-28T11:40:16;3.60;1.00
4795;DHT22;2411;47.060;15.064;2023-02-28T11:45:44;3.60;1.00
4795;DHT22;2411;47.060;15.064;2023-02-28T11:51:14;3.70;1.00
4795;DHT22;2411;47.060;15.064;2023-02-28T11:54:15;3.80;1.00
4795;DHT22;2411;47.060;15.064;2023-02-28T11:56:52;3.70;1.00
4795;DHT22;2411;47.060;15.064;2023-02-28T12:12:52;4.20;1.00
4795;DHT22;2411;47.060;15.064;2023-02-28T12:15:54;4.10;1.00
4795;DHT22;2411;47.060;15.064;2023-02-28T12:26:30;4.60;1.00
4795;DHT22;2411;47.060;15.064;2023-02-28T12:31:41;4.50;1.00
4795;DHT22;2411;47.060;15.064;2023-02-28T12:34:18;4.50;1.00
4795;DHT22;2411;47.060;15.064;2023-02-28T12:36:48;4.50;1.00
4795;DHT22;2411;47.060;15.064;2023-02-28T12:39:41;4.20;1.00
4795;DHT22;2411;47.060;15.064;2023-02-28T12:42:29;4.10;1.00
4795;DHT22;2411;47.060;15.064;2023-02-28T12:45:24;4.20;1.00
4795;DHT22;2411;47.060;15.064;2023-02-28T12:48:00;4.20;1.00
4795;DHT22;2411;47.060;15.064;2023-02-28T12:50:30;4.30;1.00
4795;DHT22;2411;47.060;15.064;2023-02-28T12:55:58;4.70;1.00
4795;DHT22;2411;47.060;15.064;2023-02-28T12:58:35;4.80;1.00
4795;DHT22;2411;47.060;15.064;2023-02-28T13:01:30;4.70;1.00
4795;DHT22;2411;47.060;15.064;2023-02-28T13:09:19;4.40;1.00
4795;DHT22;2411;47.060;15.064;2023-02-28T13:11:48;4.40;1.00
4795;DHT22;2411;47.060;15.064;2023-02-28T13:14:36;4.20;1.00
4795;DHT22;2411;47.060;15.064;2023-02-28T13:19:38;4.40;1.00
4795;DHT22;2411;47.060;15.064;2023-02-28T13:22:39;4.40;1.00
4795;DHT22;2411;47.060;15.064;2023-02-28T13:27:53;4.30;1.00
4795;DHT22;2411;47.060;15.064;2023-02-28T13:35:46;4.20;1.00
4795;DHT22;2411;47.060;15.064;2023-02-28T13:38:24;4.30;1.00
4795;DHT22;2411;47.060;15.064;2023-02-28T13:40:51;4.40;1.00
4795;DHT22;2411;47.060;15.064;2023-02-28T13:43:19;4.30;1.00
4795;DHT22;2411;47.060;15.064;2023-02-28T13:46:10;4.30;1.00
4795;DHT22;2411;47.060;15.064;2023-02-28T13:48:38;4.20;1.00
4795;DHT22;2411;47.060;15.064;2023-02-28T13:51:39;4.20;1.00
4795;DHT22;2411;47.060;15.064;2023-02-28T13:55:09;4.20;1.00
4795;DHT22;2411;47.060;15.064;2023-02-28T14:05:19;4.30;1.00
4795;DHT22;2411;47.060;15.064;2023-02-28T14:07:57;4.30;1.00
4795;DHT22;2411;47.060;15.064;2023-02-28T14:10:37;4.10;1.00
4795;DHT22;2411;47.060;15.064;2023-02-28T14:13:13;4.00;1.00
4795;DHT22;2411;47.060;15.064;2023-02-28T14:15:47;4.00;1.00
4795;DHT22;2411;47.060;15.064;2023-02-28T14:18:22;3.90;1.00
4795;DHT22;2411;47.060;15.064;2023-02-28T14:23:55;3.80;1.00
4795;DHT22;2411;47.060;15.064;2023-02-28T14:27:05;3.70;1.00
4795;DHT22;2411;47.060;15.064;2023-02-28T14:32:28;3.70;1.00
4795;DHT22;2411;47.060;15.064;2023-02-28T14:37:44;3.60;1.00
4795;DHT22;2411;47.060;15.064;2023-02-28T14:40:41;3.60;1.00
4795;DHT22;2411;47.060;15.064;2023-02-28T14:43:22;3.70;1.00
4795;DHT22;2411;47.060;15.064;2023-02-28T14:46:01;3.70;1.00
4795;DHT22;2411;47.060;15.064;2023-02-28T14:48:30;3.70;1.00
4795;DHT22;2411;47.060;15.064;2023-02-28T14:50:59;3.70;1.00
4795;DHT22;2411;47.060;15.064;2023-02-28T14:53:36;3.80;1.00
4795;DHT22;2411;47.060;15.064;2023-02-28T14:56:04;3.80;1.00
4795;DHT22;2411;47.060;15.064;2023-02-28T14:58:33;3.60;1.00
4795;DHT22;2411;47.060;15.064;2023-02-28T15:01:02;3.50;1.00
4795;DHT22;2411;47.060;15.064;2023-02-28T15:03:34;3.40;1.00
4795;DHT22;2411;47.060;15.064;2023-02-28T15:06:17;3.50;1.00
4795;DHT22;2411;47.060;15.064;2023-02-28T15:08:45;3.40;1.00
4795;DHT22;2411;47.060;15.064;2023-02-28T15:11:14;3.50;1.00
4795;DHT22;2411;47.060;15.064;2023-02-28T15:13:48;3.40;1.00
4795;DHT22;2411;47.060;15.064;2023-02-28T15:16:22;3.40;1.00
4795;DHT22;2411;47.060;15.064;2023-02-28T15:18:54;3.40;1.00
4795;DHT22;2411;47.060;15.064;2023-02-28T15:21:27;3.40;1.00
4795;DHT22;2411;47.060;15.064;2023-02-28T15:24:01;3.40;1.00
4795;DHT22;2411;47.060;15.064;2023-02-28T15:26:33;3.30;1.00
4795;DHT22;2411;47.060;15.064;2023-02-28T15:29:10;3.20;1.00
4795;DHT22;2411;47.060;15.064;2023-02-28T15:32:00;3.20;1.00
4795;DHT22;2411;47.060;15.064;2023-02-28T15:40:13;3.10;1.00
4795;DHT22;2411;47.060;15.064;2023-02-28T15:42:41;3.00;1.00
4795;DHT22;2411;47.060;15.064;2023-02-28T15:48:09;3.00;1.00
4795;DHT22;2411;47.060;15.064;2023-02-28T15:50:40;2.90;1.00
4795;DHT22;2411;47.060;15.064;2023-02-28T15:53:13;2.80;1.00
4795;DHT22;2411;47.060;15.064;2023-02-28T15:55:42;2.90;1.00
4795;DHT22;2411;47.060;15.064;2023-02-28T15:58:11;2.80;1.00
4795;DHT22;2411;47.060;15.064;2023-02-28T16:00:43;2.80;1.00
4795;DHT22;2411;47.060;15.064;2023-02-28T16:03:45;2.80;1.00
4795;DHT22;2411;47.060;15.064;2023-02-28T16:08:51;2.80;1.00
4795;DHT22;2411;47.060;15.064;2023-02-28T16:11:22;2.80;1.00
4795;DHT22;2411;47.060;15.064;2023-02-28T16:13:50;2.80;1.00
4795;DHT22;2411;47.060;15.064;2023-02-28T16:16:21;2.70;1.00
4795;DHT22;2411;47.060;15.064;2023-02-28T16:18:48;2.70;1.00
4795;DHT22;2411;47.060;15.064;2023-02-28T16:21:16;2.60;1.00
4795;DHT22;2411;47.060;15.064;2023-02-28T16:23:43;2.60;1.00
4795;DHT22;2411;47.060;15.064;2023-02-28T16:26:19;2.60;1.00
4795;DHT22;2411;47.060;15.064;2023-02-28T16:28:48;2.60;1.00
4795;DHT22;2411;47.060;15.064;2023-02-28T16:31:15;2.50;1.00
4795;DHT22;2411;47.060;15.064;2023-02-28T16:33:44;2.40;1.00
4795;DHT22;2411;47.060;15.064;2023-02-28T16:36:23;2.30;1.00
4795;DHT22;2411;47.060;15.064;2023-02-28T16:38:54;2.30;1.00
4795;DHT22;2411;47.060;15.064;2023-02-28T16:41:24;2.30;1.00
4795;DHT22;2411;47.060;15.064;2023-02-28T16:43:54;2.30;1.00
4795;DHT22;2411;47.060;15.064;2023-02-28T16:46:33;2.30;1.00
4795;DHT22;2411;47.060;15.064;2023-02-28T16:49:00;2.30;1.00
4795;DHT22;2411;47.060;15.064;2023-02-28T16:51:28;2.20;1.00
4795;DHT22;2411;47.060;15.064;2023-02-28T16:53:55;2.20;1.00
4795;DHT22;2411;47.060;15.064;2023-02-28T16:56:24;2.20;1.00
4795;DHT22;2411;47.060;15.064;2023-02-28T16:58:57;2.20;1.00
4795;DHT22;2411;47.060;15.064;2023-02-28T17:01:26;2.20;1.00
4795;DHT22;2411;47.060;15.064;2023-02-28T17:03:55;2.20;1.00
4795;DHT22;2411;47.060;15.064;2023-02-28T17:06:24;2.20;1.00
4795;DHT22;2411;47.060;15.064;2023-02-28T17:08:55;2.20;1.00
4795;DHT22;2411;47.060;15.064;2023-02-28T17:11:23;2.20;1.00
4795;DHT22;2411;47.060;15.064;2023-02-28T17:13:50;2.20;1.00
4795;DHT22;2411;47.060;15.064;2023-02-28T17:16:36;2.20;1.00
4795;DHT22;2411;47.060;15.064;2023-02-28T17:19:14;2.20;1.00
4795;DHT22;2411;47.060;15.064;2023-02-28T17:21:42;2.10;1.00
4795;DHT22;2411;47.060;15.064;2023-02-28T17:24:10;2.00;1.00
4795;DHT22;2411;47.060;15.064;2023-02-28T17:26:45;2.00;1.00
4795;DHT22;2411;47.060;15.064;2023-02-28T17:29:18;2.10;1.00
4795;DHT22;2411;47.060;15.064;2023-02-28T17:31:46;2.10;1.00
4795;DHT22;2411;47.060;15.064;2023-02-28T17:34:13;2.10;1.00
4795;DHT22;2411;47.060;15.064;2023-02-28T17:36:46;2.00;1.00
4795;DHT22;2411;47.060;15.064;2023-02-28T17:39:15;2.00;1.00
4795;DHT22;2411;47.060;15.064;2023-02-28T17:41:46;1.90;1.00
4795;DHT22;2411;47.060;15.064;2023-02-28T17:44:13;1.80;1.00
4795;DHT22;2411;47.060;15.064;2023-02-28T17:46:41;1.70;1.00
4795;DHT22;2411;47.060;15.064;2023-02-28T17:49:10;1.70;1.00
4795;DHT22;2411;47.060;15.064;2023-02-28T17:51:37;1.70;1.00
4795;DHT22;2411;47.060;15.064;2023-02-28T17:54:04;1.70;1.00
4795;DHT22;2411;47.060;15.064;2023-02-28T17:56:32;1.80;1.00
4795;DHT22;2411;47.060;15.064;2023-02-28T17:58:59;1.80;1.00
4795;DHT22;2411;47.060;15.064;2023-02-28T18:01:26;1.80;1.00
4795;DHT22;2411;47.060;15.064;2023-02-28T18:03:54;1.70;1.00
4795;DHT22;2411;47.060;15.064;2023-02-28T18:06:25;1.80;1.00
4795;DHT22;2411;47.060;15.064;2023-02-28T18:08:54;1.90;1.00
4795;DHT22;2411;47.060;15.064;2023-02-28T18:11:22;1.90;1.00
4795;DHT22;2411;47.060;15.064;2023-02-28T18:13:52;1.80;1.00
4795;DHT22;2411;47.060;15.064;2023-02-28T18:16:20;1.90;1.00
4795;DHT22;2411;47.060;15.064;2023-02-28T18:18:49;1.90;1.00
4795;DHT22;2411;47.060;15.064;2023-02-28T18:21:16;1.90;1.00
4795;DHT22;2411;47.060;15.064;2023-02-28T18:23:44;1.90;1.00
4795;DHT22;2411;47.060;15.064;2023-02-28T18:26:16;1.90;1.00
4795;DHT22;2411;47.060;15.064;2023-02-28T18:28:44;1.90;1.00
4795;DHT22;2411;47.060;15.064;2023-02-28T18:31:16;1.90;1.00
4795;DHT22;2411;47.060;15.064;2023-02-28T18:33:47;1.90;1.00
4795;DHT22;2411;47.060;15.064;2023-02-28T18:36:15;2.00;1.00
4795;DHT22;2411;47.060;15.064;2023-02-28T18:38:42;2.00;1.00
4795;DHT22;2411;47.060;15.064;2023-02-28T18:41:10;2.00;1.00
4795;DHT22;2411;47.060;15.064;2023-02-28T18:43:37;2.00;1.00
4795;DHT22;2411;47.060;15.064;2023-02-28T18:46:07;1.90;1.00
4795;DHT22;2411;47.060;15.064;2023-02-28T18:48:35;1.80;1.00
4795;DHT22;2411;47.060;15.064;2023-02-28T18:51:14;1.80;1.00
4795;DHT22;2411;47.060;15.064;2023-02-28T18:53:43;1.80;1.00
4795;DHT22;2411;47.060;15.064;2023-02-28T18:56:12;1.80;1.00
4795;DHT22;2411;47.060;15.064;2023-02-28T18:58:39;1.80;1.00
4795;DHT22;2411;47.060;15.064;2023-02-28T19:01:23;1.80;1.00
4795;DHT22;2411;47.060;15.064;2023-02-28T19:03:54;1.80;1.00
4795;DHT22;2411;47.060;15.064;2023-02-28T19:06:22;1.70;1.00